Metar Cercanos

 

LEPA - Palma De Mallorc, Spain
Distance from station: ONO 38km
Actualización: 16/08/2018 02:30
Few Clouds
Few Clouds
 Viento del NNE
Viento: NNE 6 km/h
Temperatura: 22°C
Rocío: 19°C
Humedad: 83%
Barómetro: 1016 hPa
Clouds: Few Clouds
Visibility: 10 km
Cloud details: Few Clouds 762 m
2018/08/16 00:30 LEPA 160030Z 03003KT 9999 FEW025 22/19 Q1016 NOSIG
LEMH - Mahon/Menorca Is, Spain
Distance from station: ENE 105km
Actualización: 16/08/2018 02:30
Despejado
Despejado
 Viento del NNO
Viento: NNO 7 km/h
Temperatura: 22°C
Rocío: 17°C
Humedad: 73%
Barómetro: 1016 hPa
Clouds: Despejado
Visibility: 10 km
2018/08/16 00:30 LEMH 160030Z AUTO 33004KT 9999 NCD 22/17 Q1016
 
LEIB - Ibiza/Es Codola, Spain
Distance from station: OSO 165km
Actualización: 16/08/2018 02:30
Despejado
Despejado
 Viento del SE
Viento: SE 6 km/h
Temperatura: 25°C
Rocío: 19°C
Humedad: 69%
Barómetro: 1016 hPa
Resumen: Despejado
Visibility: greater than 10 km
2018/08/16 00:30 LEIB 160030Z 13003KT 080V150 CAVOK 25/19 Q1016 NOSIG
LEBL - Barcelona Airpor, Spain
Distance from station: NNO 225km
Actualización: 16/08/2018 02:30
Few Clouds
Few Clouds
 Viento del ONO
Viento: ONO 11 km/h
Temperatura: 24°C
Rocío: 21°C
Humedad: 83%
Barómetro: 1016 hPa
Clouds: Few Clouds
Visibility: 10 km
Cloud details: Few Clouds 914 m
2018/08/16 00:30 LEBL 160030Z 30006KT 9999 FEW030 24/21 Q1016 NOSIG
 
LEVC - Valencia (civ/Mi, Spain
Distance from station: NO 188km
Actualización: 16/08/2018 02:30
Parcialmente nuboso
Parcialmente nuboso
 Viento del N
Viento: N 9 km/h
Temperatura: 26°C
Rocío: 23°C
Humedad: 84%
Barómetro: 1016 hPa
Clouds: Parcialmente nuboso
Visibility: 10 km
Cloud details: Parcialmente nuboso 610 m
2018/08/16 00:30 LEVC 160030Z 36005KT 9999 SCT020 26/23 Q1016 NOSIG
LEGE - Gerona/Costa Bra, Spain
Distance from station: N 276km
Actualización: 16/08/2018 02:30
Few Clouds
Few Clouds
 Viento del calm
Viento: Calma
Temperatura: 19°C
Rocío: 17°C
Humedad: 88%
Barómetro: 1017 hPa
Clouds: Few Clouds
Visibility: 10 km
Cloud details: Few Clouds 1372 m
2018/08/16 00:30 LEGE 160030Z 00000KT 9999 FEW045 19/17 Q1017
 
LEAL - Alicante/El Alte, Spain
Distance from station: OSO 344km
Actualización: 16/08/2018 02:30
Muy nuboso
Muy nuboso
 Viento del calm
Viento: Calma
Temperatura: 26°C
Rocío: 23°C
Humedad: 84%
Barómetro: 1016 hPa
Clouds: Muy nuboso
Visibility: 10 km
Cloud details: Parcialmente nuboso 671 m
Muy nuboso 1158 m
2018/08/16 00:30 LEAL 160030Z 00000KT 9999 SCT022 BKN038 26/23 Q1016 NOSIG
LEAM - Almeria Airport, Spain
Distance from station: SSO 56km
Actualización: 16/08/2018 02:30
Parcialmente nuboso
Parcialmente nuboso
 Viento del SE
Viento: SE 4 km/h
Temperatura: 26°C
Rocío: 23°C
Humedad: 84%
Barómetro: 1015 hPa
Clouds: Parcialmente nuboso
Visibility: 10 km
Cloud details: Parcialmente nuboso 1067 m
2018/08/16 00:30 LEAM 160030Z AUTO 14002KT 9999 SCT035/// 26/23 Q1015
 
LEZG - Zaragoza (mil/Ci, Spain
Distance from station: NO 431km
Actualización: 16/08/2018 02:30
Few Clouds
Few Clouds
 Viento del E
Viento: E 4 km/h
Temperatura: 23°C
Rocío: 15°C
Humedad: 61%
Barómetro: 1016 hPa
Clouds: Few Clouds
Visibility: 10 km
Cloud details: Few Clouds 1219 m
2018/08/16 00:30 LEZG 160030Z 09002KT 9999 FEW040 23/15 Q1016
LEMD - Madrid/Barajas, Spain
Distance from station: ONO 234km
Actualización: 16/08/2018 02:30
Despejado
Despejado
 Viento del E
Viento: E 11 km/h
Temperatura: 27°C
Indice Calor: 28°C
Rocío: 19°C
Humedad: 62%
Barómetro: 1016 hPa
Resumen: Despejado
Visibility: greater than 10 km
2018/08/16 00:30 LEMD 160030Z 10006KT 060V150 CAVOK 27/19 Q1016 NOSIG
 
LEGR - Granada Airport, Spain
Distance from station: OSO 62km
Actualización: 16/08/2018 02:30
Despejado
Despejado
 Viento del calm
Viento: Calma
Temperatura: 22°C
Rocío: 15°C
Humedad: 65%
Barómetro: 1018 hPa
Clouds: Despejado
Visibility: 10 km
2018/08/16 00:30 LEGR 160030Z AUTO 00000KT 9999 NCD 22/15 Q1018
LEMG - Malaga (civ/Mil), Spain
Distance from station: OSO 227km
Actualización: 16/08/2018 02:30
Parcialmente nuboso
Parcialmente nuboso
 Viento del varies
Viento: varies 4 km/h
Temperatura: 25°C
Rocío: 22°C
Humedad: 83%
Barómetro: 1016 hPa
Clouds: Parcialmente nuboso
Visibility: 10 km
Cloud details: Few Clouds 305 m
Parcialmente nuboso 457 m
2018/08/16 00:30 LEMG 160030Z VRB02KT 9999 FEW010 SCT015 25/22 Q1016 NOSIG
 
LEZL - Sevilla (civ/Mil, Spain
Distance from station: S 318km
Actualización: 16/08/2018 02:30
Despejado
Despejado
 Viento del SO
Viento: SO 13 km/h
Temperatura: 20°C
Rocío: 18°C
Humedad: 88%
Barómetro: 1016 hPa
Clouds: Despejado
Visibility: 10 km
2018/08/16 00:30 LEZL 160030Z AUTO 22007KT 9999 NCD 20/18 Q1016
LEVT - Vitoria, Spain
Distance from station: NO 226km
Actualización: 16/08/2018 02:30
Few Clouds
Few Clouds
 Viento del E
Viento: E 6 km/h
Temperatura: 15°C
Rocío: 15°C
Humedad: 100%
Barómetro: 1018 hPa
Clouds: Few Clouds
Visibility: 10 km
Cloud details: Few Clouds 1067 m
2018/08/16 00:30 LEVT 160030Z 09003KT 9999 FEW035 15/15 Q1018
 
LEBB - Bilbao/Sondica, Spain
Distance from station: NNO 235km
Actualización: 16/08/2018 02:30
Despejado
Despejado
 Viento del ESE
Viento: ESE 6 km/h
Temperatura: 18°C
Rocío: 17°C
Humedad: 94%
Barómetro: 1017 hPa
Clouds: Despejado
Visibility: 10 km
2018/08/16 00:30 LEBB 160030Z AUTO 11003KT 080V150 9999 NCD 18/17 Q1017
LESO - San Sebastian/Fu, Spain
Distance from station: N 231km
Actualización: 16/08/2018 02:30
Despejado
Despejado
 Viento del S
Viento: S 7 km/h
Temperatura: 20°C
Rocío: 19°C
Humedad: 94%
Barómetro: 1016 hPa
Clouds: Despejado
Visibility: 10 km
2018/08/16 00:30 LESO 160030Z AUTO 17004KT 140V200 9999 NCD 20/19 Q1016
 
LEVD - Valladolid(Mil/C, Spain
Distance from station: ONO 239km
Actualización: 15/08/2018 21:30
NOT Current
Despejado
Despejado
 Viento del N
Viento: N 7 km/h
Temperatura: 24°C
Rocío: 4°C
Humedad: 27%
Barómetro: 1017 hPa
Resumen: Despejado
Visibility: greater than 10 km
2018/08/15 19:30 LEVD 151930Z 36004KT CAVOK 24/04 Q1017
LESA - Salamanca (civ/M, Spain
Distance from station: ONO 349km
Actualización: 16/08/2018 02:30
Despejado
Despejado
 Viento del calm
Viento: Calma
Temperatura: 14°C
Rocío: 12°C
Humedad: 88%
Barómetro: 1018 hPa
Clouds: Despejado
Visibility: 9 km
2018/08/16 00:30 LESA 160030Z AUTO 00000KT 9000 NCD 14/12 Q1018
 
LEXJ - Santander/Paraya, Spain
Distance from station: NNO 247km
Actualización: 16/08/2018 02:30
Despejado
Despejado
 Viento del OSO
Viento: OSO 2 km/h
Temperatura: 19°C
Rocío: 19°C
Humedad: 100%
Barómetro: 1017 hPa
Clouds: Despejado
Visibility: 7 km
2018/08/16 00:30 LEXJ 160030Z AUTO 24001KT 7000 NCD 19/19 Q1017
LEAS - Asturias/Aviles, Spain
Distance from station: NO 214km
Actualización: 16/08/2018 02:30
Muy nuboso
Muy nuboso
 Viento del calm
Viento: Calma
Temperatura: 20°C
Rocío: 18°C
Humedad: 88%
Barómetro: 1018 hPa
Clouds: Muy nuboso
Visibility: 10 km
Cloud details: Muy nuboso 853 m
2018/08/16 00:30 LEAS 160030Z 00000KT 9999 BKN028 20/18 Q1018 NOSIG
 
LECO - La Coruna/Alvedr, Spain
Distance from station: ONO 222km
Actualización: 16/08/2018 02:30
Few Clouds
Few Clouds
 Viento del NNO
Viento: NNO 7 km/h
Temperatura: 18°C
Rocío: 16°C
Humedad: 88%
Barómetro: 1018 hPa
Clouds: Few Clouds
Visibility: 10 km
Cloud details: Few Clouds 792 m
2018/08/16 00:30 LECO 160030Z AUTO 33004KT 290V010 9999 FEW026/// 18/16 Q1018
LEVX - Vigo/Peinador, Spain
Distance from station: O 214km
Actualización: 16/08/2018 02:30
Despejado
Despejado
 Viento del NNE
Viento: NNE 9 km/h
Temperatura: 19°C
Rocío: 16°C
Humedad: 83%
Barómetro: 1016 hPa
Resumen: Despejado
Visibility: greater than 10 km
2018/08/16 00:30 LEVX 160030Z 02005KT CAVOK 19/16 Q1016 NOSIG